createdAt,value
2022-08-09T00:02:56.041Z,101603.45
2022-08-09T00:06:23.792Z,101604.75
2022-08-09T00:09:51.565Z,101607.95
2022-08-09T00:13:19.013Z,101607.82
2022-08-09T00:16:46.825Z,101605.60
2022-08-09T00:20:15.562Z,101602.95
2022-08-09T00:23:55.578Z,101605.38
2022-08-09T00:27:30.524Z,101605.66
2022-08-09T00:31:30.238Z,101602.66
2022-08-09T00:34:52.954Z,101603.67
2022-08-09T00:38:21.594Z,101601.59
2022-08-09T00:44:19.481Z,101596.50
2022-08-09T00:45:38.719Z,101596.41
2022-08-09T00:49:20.718Z,101597.99
2022-08-09T00:52:50.372Z,101602.88
2022-08-09T00:56:20.513Z,101604.89
2022-08-09T00:59:52.395Z,101607.50
2022-08-09T01:03:28.538Z,101607.23
2022-08-09T01:07:01.631Z,101607.15
2022-08-09T01:10:36.636Z,101609.25
2022-08-09T01:14:11.794Z,101609.33
2022-08-09T01:17:47.522Z,101605.89
2022-08-09T01:21:24.815Z,101605.38
2022-08-09T01:25:12.366Z,101608.71
2022-08-09T01:28:45.636Z,101611.33
2022-08-09T01:32:31.927Z,101609.45
2022-08-09T01:36:17.205Z,101607.75
2022-08-09T01:39:49.291Z,101612.27
2022-08-09T01:43:19.239Z,101609.05
2022-08-09T01:46:53.166Z,101610.31
2022-08-09T01:50:29.946Z,101608.59
2022-08-09T01:54:07.269Z,101612.71
2022-08-09T01:57:45.911Z,101611.45
2022-08-09T02:01:20.282Z,101611.59
2022-08-09T02:05:02.738Z,101617.24
2022-08-09T02:08:57.602Z,101614.94
2022-08-09T02:12:25.728Z,101618.51
2022-08-09T02:15:56.747Z,101619.75
2022-08-09T02:19:24.904Z,101621.44
2022-08-09T02:23:12.181Z,101619.89
2022-08-09T02:26:42.664Z,101614.34
2022-08-09T02:30:12.630Z,101612.10
2022-08-09T02:34:06.812Z,101614.86
2022-08-09T02:37:38.529Z,101610.08
2022-08-09T02:41:16.385Z,101611.66
2022-08-09T02:44:49.144Z,101612.27
2022-08-09T02:48:19.432Z,101613.67
2022-08-09T02:52:03.736Z,101614.42
2022-08-09T02:55:53.765Z,101613.47
2022-08-09T02:59:26.507Z,101617.66
2022-08-09T03:03:08.562Z,101621.63
2022-08-09T03:06:41.553Z,101624.55
2022-08-09T03:10:15.499Z,101627.50
2022-08-09T03:13:59.254Z,101626.19
2022-08-09T03:17:28.218Z,101625.14
2022-08-09T03:20:58.242Z,101622.65
2022-08-09T03:24:31.566Z,101623.16
2022-08-09T03:28:15.920Z,101626.80
2022-08-09T03:31:59.801Z,101623.52
2022-08-09T03:35:44.163Z,101623.30
2022-08-09T03:39:16.562Z,101625.45
2022-08-09T03:42:45.028Z,101622.00
2022-08-09T03:46:27.116Z,101628.36
2022-08-09T03:49:58.879Z,101631.50
2022-08-09T03:53:32.286Z,101633.29
2022-08-09T03:57:18.389Z,101633.30
2022-08-09T04:00:53.134Z,101635.93
2022-08-09T04:04:24.625Z,101635.87
2022-08-09T04:07:57.139Z,101635.73
2022-08-09T04:11:26.773Z,101636.86
2022-08-09T04:15:01.830Z,101639.08
2022-08-09T04:18:32.777Z,101641.52
2022-08-09T04:22:02.772Z,101639.70
2022-08-09T04:25:30.273Z,101640.82
2022-08-09T04:28:58.346Z,101643.56
2022-08-09T04:32:33.767Z,101648.02
2022-08-09T04:36:04.738Z,101651.39
2022-08-09T04:39:40.582Z,101656.27
2022-08-09T04:43:08.105Z,101658.86
2022-08-09T04:46:37.338Z,101661.41
2022-08-09T04:50:22.973Z,101666.34
2022-08-09T04:53:59.300Z,101666.20
2022-08-09T04:57:27.232Z,101666.85
2022-08-09T05:01:16.243Z,101665.42
2022-08-09T05:04:47.395Z,101665.87
2022-08-09T05:08:15.208Z,101664.33
2022-08-09T05:11:43.532Z,101672.63
2022-08-09T05:15:38.541Z,101670.52
2022-08-09T05:19:00.510Z,101673.70
2022-08-09T05:22:54.222Z,101670.83
2022-08-09T05:26:26.533Z,101673.00
2022-08-09T05:30:03.863Z,101673.40
2022-08-09T05:33:32.794Z,101676.50
2022-08-09T05:37:01.773Z,101681.64
2022-08-09T05:40:32.336Z,101680.40
2022-08-09T05:43:59.555Z,101681.37
2022-08-09T05:47:30.346Z,101682.11
2022-08-09T05:51:29.783Z,101684.46
2022-08-09T05:54:49.222Z,101684.79
2022-08-09T05:58:18.390Z,101685.42
2022-08-09T06:01:45.631Z,101682.48
2022-08-09T06:05:16.307Z,101683.32
2022-08-09T06:08:43.529Z,101684.36
2022-08-09T06:12:19.816Z,101687.36
2022-08-09T06:15:51.484Z,101688.05
2022-08-09T06:19:23.031Z,101689.98
2022-08-09T06:22:53.844Z,101693.52
2022-08-09T06:26:28.635Z,101693.90
2022-08-09T06:30:08.726Z,101698.59
2022-08-09T06:33:42.177Z,101701.05
2022-08-09T06:37:23.796Z,101700.59
2022-08-09T06:40:59.213Z,101704.84
2022-08-09T06:44:30.693Z,101702.98
2022-08-09T06:48:01.529Z,101708.04
2022-08-09T06:51:32.117Z,101707.90
2022-08-09T06:55:00.701Z,101711.90
2022-08-09T07:00:46.777Z,101712.21
2022-08-09T07:02:30.802Z,101714.92
2022-08-09T07:06:09.486Z,101716.50
2022-08-09T07:09:55.252Z,101719.61
2022-08-09T07:13:30.395Z,101720.82
2022-08-09T07:16:58.605Z,101724.19
2022-08-09T07:20:29.690Z,101729.29
2022-08-09T07:24:00.784Z,101728.34
2022-08-09T07:27:42.624Z,101731.80
2022-08-09T07:31:10.893Z,101732.61
2022-08-09T07:34:45.696Z,101734.31
2022-08-09T07:38:17.356Z,101739.55
2022-08-09T07:41:52.897Z,101743.45
2022-08-09T07:45:38.114Z,101740.11
2022-08-09T07:49:19.791Z,101739.23
2022-08-09T07:52:48.996Z,101740.34
2022-08-09T07:56:27.232Z,101741.55
2022-08-09T08:00:02.747Z,101745.30
2022-08-09T08:03:40.401Z,101744.64
2022-08-09T08:07:57.278Z,101742.09
2022-08-09T08:11:15.375Z,101745.09
2022-08-09T08:14:48.023Z,101742.98
2022-08-09T08:18:18.259Z,101742.48
2022-08-09T08:21:52.617Z,101742.27
2022-08-09T08:25:21.002Z,101744.52
2022-08-09T08:28:50.900Z,101744.57
2022-08-09T08:32:29.230Z,101754.83
2022-08-09T08:36:03.532Z,101753.09
2022-08-09T08:39:43.698Z,101754.58
2022-08-09T08:43:13.898Z,101754.52
2022-08-09T08:46:59.750Z,101757.53
2022-08-09T08:50:34.227Z,101757.02
2022-08-09T08:54:29.906Z,101755.15
2022-08-09T08:58:01.570Z,101749.44
2022-08-09T09:01:35.661Z,101752.58
2022-08-09T09:05:57.600Z,101748.56
2022-08-09T09:09:21.096Z,101748.91
2022-08-09T09:13:09.296Z,101747.70
2022-08-09T09:16:39.011Z,101747.64
2022-08-09T09:20:16.208Z,101749.52
2022-08-09T09:23:58.125Z,101750.13
2022-08-09T09:28:06.150Z,101749.02
2022-08-09T09:32:03.651Z,101752.50
2022-08-09T09:35:15.851Z,101750.20
2022-08-09T09:38:51.123Z,101749.02
2022-08-09T09:42:28.342Z,101749.48
2022-08-09T09:46:41.768Z,101746.13
2022-08-09T09:50:14.497Z,101749.36
2022-08-09T09:54:01.193Z,101748.13
2022-08-09T09:58:03.390Z,101749.11
2022-08-09T10:01:30.875Z,101744.26
2022-08-09T10:05:15.037Z,101746.55
2022-08-09T10:09:03.175Z,101743.98
2022-08-09T10:12:57.433Z,101740.95
2022-08-09T10:16:57.223Z,101739.63
2022-08-09T10:20:35.631Z,101736.08
2022-08-09T10:24:16.090Z,101734.40
2022-08-09T10:27:56.851Z,101736.31
2022-08-09T10:32:27.837Z,101729.58
2022-08-09T10:35:14.805Z,101726.73
2022-08-09T10:38:55.920Z,101720.64
2022-08-09T10:42:29.705Z,101720.55
2022-08-09T10:46:03.242Z,101719.73
2022-08-09T10:49:51.720Z,101712.54
2022-08-09T10:53:54.520Z,101715.00
2022-08-09T10:57:23.769Z,101709.41
2022-08-09T11:03:01.742Z,101709.03
2022-08-09T11:04:55.576Z,101711.08
2022-08-09T11:08:47.702Z,101706.72
2022-08-09T11:12:20.218Z,101707.59
2022-08-09T11:16:04.503Z,101701.84
2022-08-09T11:20:12.026Z,101696.84
2022-08-09T11:24:06.146Z,101693.59
2022-08-09T11:28:05.583Z,101695.22
2022-08-09T11:31:57.399Z,101687.89
2022-08-09T11:35:49.630Z,101688.84
2022-08-09T11:39:19.098Z,101686.06
2022-08-09T11:42:53.055Z,101689.17
2022-08-09T11:46:33.002Z,101683.89
2022-08-09T11:50:56.228Z,101678.59
2022-08-09T11:54:28.483Z,101680.81
2022-08-09T11:58:06.094Z,101680.83
2022-08-09T12:02:16.076Z,101682.92
2022-08-09T12:05:37.988Z,101675.98
2022-08-09T12:09:19.707Z,101668.65
2022-08-09T12:12:52.758Z,101672.64
2022-08-09T12:16:30.721Z,101670.16
2022-08-09T12:20:21.853Z,101669.75
2022-08-09T12:24:09.134Z,101664.45
2022-08-09T12:29:15.213Z,101661.60
2022-08-09T12:31:31.130Z,101658.98
2022-08-09T12:35:22.276Z,101655.52
2022-08-09T12:38:51.803Z,101654.92
2022-08-09T12:42:22.963Z,101652.42
2022-08-09T12:46:00.106Z,101651.34
2022-08-09T12:49:31.095Z,101649.10
2022-08-09T12:53:18.392Z,101647.70
2022-08-09T12:56:56.770Z,101654.47
2022-08-09T13:00:30.514Z,101648.59
2022-08-09T13:04:02.569Z,101649.05
2022-08-09T13:07:50.666Z,101650.02
2022-08-09T13:11:30.424Z,101645.80
2022-08-09T13:15:11.317Z,101648.96
2022-08-09T13:18:53.861Z,101647.90
2022-08-09T13:22:37.218Z,101643.33
2022-08-09T13:26:36.976Z,101645.05
2022-08-09T13:30:50.763Z,101644.33
2022-08-09T13:34:00.242Z,101650.85
2022-08-09T13:37:52.176Z,101650.34
2022-08-09T13:41:59.138Z,101653.73
2022-08-09T13:45:21.161Z,101655.15
2022-08-09T13:48:50.781Z,101658.10
2022-08-09T13:52:22.506Z,101656.50
2022-08-09T13:55:53.706Z,101660.70
2022-08-09T13:59:25.373Z,101659.77
2022-08-09T14:03:57.771Z,101655.80
2022-08-09T14:06:54.926Z,101652.71
2022-08-09T14:10:37.596Z,101656.70
2022-08-09T14:14:26.142Z,101657.93
2022-08-09T14:18:16.610Z,101661.60
2022-08-09T14:21:48.333Z,101666.61
2022-08-09T14:25:19.406Z,101674.23
2022-08-09T14:28:53.324Z,101672.34
2022-08-09T14:32:28.717Z,101676.05
2022-08-09T14:35:59.318Z,101680.80
2022-08-09T14:39:50.768Z,101682.55
2022-08-09T14:43:19.084Z,101690.66
2022-08-09T14:47:01.474Z,101692.55
2022-08-09T14:50:36.877Z,101691.95
2022-08-09T14:54:04.998Z,101694.50
2022-08-09T14:57:43.123Z,101694.26
2022-08-09T15:01:11.449Z,101687.80
2022-08-09T15:04:40.552Z,101682.37
2022-08-09T15:08:10.291Z,101683.59
2022-08-09T15:11:38.505Z,101685.49
2022-08-09T15:15:08.937Z,101684.23
2022-08-09T15:18:37.680Z,101688.77
2022-08-09T15:22:06.515Z,101689.95
2022-08-09T15:25:40.788Z,101689.21
2022-08-09T15:29:09.727Z,101687.17
2022-08-09T15:32:59.352Z,101681.99
2022-08-09T15:36:31.410Z,101682.49
2022-08-09T15:39:58.901Z,101680.73
2022-08-09T15:43:29.919Z,101681.70
2022-08-09T15:47:05.193Z,101677.53
2022-08-09T15:50:32.724Z,101676.95
2022-08-09T15:54:03.927Z,101676.48
2022-08-09T15:57:44.329Z,101679.16
2022-08-09T16:01:17.830Z,101681.54
2022-08-09T16:04:46.488Z,101680.50
2022-08-09T16:08:30.599Z,101679.36
2022-08-09T16:11:59.971Z,101679.08
2022-08-09T16:16:04.562Z,101676.67
2022-08-09T16:19:20.650Z,101679.57
2022-08-09T16:22:52.627Z,101676.46
2022-08-09T16:26:35.273Z,101668.65
2022-08-09T16:30:06.798Z,101663.70
2022-08-09T16:33:38.783Z,101660.08
2022-08-09T16:37:08.134Z,101660.55
2022-08-09T16:40:41.818Z,101658.00
2022-08-09T16:44:11.186Z,101658.73
2022-08-09T16:48:38.471Z,101657.48
2022-08-09T16:51:29.750Z,101659.05
2022-08-09T16:54:57.347Z,101659.88
2022-08-09T16:58:26.262Z,101661.54
2022-08-09T17:01:55.145Z,101663.73
2022-08-09T17:06:08.093Z,101665.19
2022-08-09T17:09:45.764Z,101666.10
2022-08-09T17:13:03.526Z,101670.79
2022-08-09T17:16:38.236Z,101673.20
2022-08-09T17:20:29.826Z,101676.50
2022-08-09T17:24:21.066Z,101678.30
2022-08-09T17:27:49.608Z,101682.93
2022-08-09T17:31:22.335Z,101681.31
2022-08-09T17:35:10.424Z,101685.97
2022-08-09T17:38:39.547Z,101680.62
2022-08-09T17:42:13.577Z,101682.33
2022-08-09T17:46:02.606Z,101681.53
2022-08-09T17:49:33.680Z,101685.86
2022-08-09T17:53:02.524Z,101690.47
2022-08-09T17:56:35.990Z,101690.30
2022-08-09T18:00:05.787Z,101691.31
2022-08-09T18:03:40.666Z,101697.59
2022-08-09T18:07:09.524Z,101699.02
2022-08-09T18:11:02.210Z,101704.23
2022-08-09T18:14:32.387Z,101708.09
2022-08-09T18:18:08.170Z,101710.14
2022-08-09T18:21:41.530Z,101715.44
2022-08-09T18:25:14.461Z,101722.33
2022-08-09T18:30:40.346Z,101722.49
2022-08-09T18:32:39.442Z,101721.81
2022-08-09T18:36:14.357Z,101725.56
2022-08-09T18:39:57.681Z,101727.83
2022-08-09T18:43:27.085Z,101729.59
2022-08-09T18:47:03.366Z,101734.73
2022-08-09T18:50:34.902Z,101732.20
2022-08-09T18:54:16.529Z,101731.66
2022-08-09T18:57:49.512Z,101729.94
2022-08-09T19:01:26.293Z,101733.52
2022-08-09T19:05:04.279Z,101736.09
2022-08-09T19:08:55.330Z,101734.13
2022-08-09T19:12:37.282Z,101732.10
2022-08-09T19:16:09.754Z,101733.18
2022-08-09T19:19:52.325Z,101742.76
2022-08-09T19:24:31.573Z,101743.06
2022-08-09T19:27:34.141Z,101743.56
2022-08-09T19:31:07.760Z,101742.45
2022-08-09T19:34:49.619Z,101746.98
2022-08-09T19:38:25.532Z,101747.36
2022-08-09T19:41:59.482Z,101751.01
2022-08-09T19:45:40.186Z,101754.98
2022-08-09T19:50:06.793Z,101760.06
2022-08-09T19:53:06.218Z,101761.42
2022-08-09T19:56:44.558Z,101762.35
2022-08-09T20:00:21.400Z,101766.84
2022-08-09T20:04:10.848Z,101770.30
2022-08-09T20:07:58.742Z,101769.23
2022-08-09T20:11:42.892Z,101768.55
2022-08-09T20:16:35.774Z,101773.47
2022-08-09T20:19:47.491Z,101772.95
2022-08-09T20:23:01.268Z,101775.30
2022-08-09T20:26:34.418Z,101773.45
2022-08-09T20:30:07.717Z,101779.19
2022-08-09T20:33:52.493Z,101773.66
2022-08-09T20:38:23.902Z,101778.84
2022-08-09T20:41:38.826Z,101773.46
2022-08-09T20:46:00.077Z,101779.73
2022-08-09T20:49:15.874Z,101777.17
2022-08-09T20:52:48.978Z,101776.37
2022-08-09T20:56:26.343Z,101772.88
2022-08-09T21:00:30.778Z,101770.84
2022-08-09T21:04:08.065Z,101772.98
2022-08-09T21:07:44.999Z,101776.06
2022-08-09T21:15:12.599Z,101783.66
2022-08-09T21:19:01.454Z,101780.16
2022-08-09T21:22:38.604Z,101783.45
2022-08-09T21:26:08.866Z,101787.02
2022-08-09T21:29:49.500Z,101784.65
2022-08-09T21:33:19.641Z,101789.64
2022-08-09T21:36:55.839Z,101787.81
2022-08-09T21:40:30.712Z,101795.04
2022-08-09T21:44:02.875Z,101793.62
2022-08-09T21:47:35.193Z,101789.84
2022-08-09T21:51:13.459Z,101790.56
2022-08-09T21:54:49.697Z,101791.21
2022-08-09T21:58:31.106Z,101793.52
2022-08-09T22:02:01.039Z,101792.58
2022-08-09T22:05:35.552Z,101791.84
2022-08-09T22:09:05.962Z,101787.65
2022-08-09T22:12:40.710Z,101787.60
2022-08-09T22:16:18.016Z,101791.38
2022-08-09T22:19:58.589Z,101791.69
2022-08-09T22:23:35.566Z,101788.77
2022-08-09T22:27:18.785Z,101791.48
2022-08-09T22:30:48.810Z,101787.95
2022-08-09T22:34:16.905Z,101785.87
2022-08-09T22:37:48.219Z,101781.05
2022-08-09T22:41:34.845Z,101782.66
2022-08-09T22:48:12.675Z,101783.70
2022-08-09T22:48:50.672Z,101784.59
2022-08-09T22:52:19.741Z,101785.64
2022-08-09T22:56:30.604Z,101784.91
2022-08-09T22:59:58.289Z,101783.70
2022-08-09T23:04:02.371Z,101786.20
2022-08-09T23:08:09.425Z,101787.08
2022-08-09T23:11:17.357Z,101786.98
2022-08-09T23:14:46.510Z,101786.73
2022-08-09T23:18:14.337Z,101787.58
2022-08-09T23:21:43.021Z,101786.85
2022-08-09T23:25:12.152Z,101788.23
2022-08-09T23:28:40.118Z,101786.84
2022-08-09T23:32:08.047Z,101785.64
2022-08-09T23:36:07.032Z,101783.64
2022-08-09T23:39:23.047Z,101789.06
2022-08-09T23:42:51.982Z,101788.40
2022-08-09T23:46:19.348Z,101790.55
2022-08-09T23:49:48.410Z,101789.58
2022-08-09T23:53:17.245Z,101790.34
2022-08-09T23:56:54.043Z,101784.55
